Time;durP1;ratioP1;P1;durP2;ratioP2;P2;SDS_P1;SDS_P2;PMS_P1;PMS_P2;Temp;Humidity;BMP_temperature;BMP_pressure;BME280_temperature;BME280_humidity;BME280_pressure;Samples;Min_cycle;Max_cycle;Signal;HPM_P1;HPM_P2
2021/07/29 00:01:41;;;;;;;21.42;8.93;;;;;;;19.43;83.23;98528.30;2172578;82;20941;-74
2021/07/29 00:04:41;;;;;;;20.10;8.43;;;;;;;19.35;83.05;98524.59;2172306;82;20977;-70
2021/07/29 00:07:42;;;;;;;22.13;9.05;;;;;;;19.28;82.89;98518.72;2172309;82;20956;-68
2021/07/29 00:10:42;;;;;;;23.75;9.08;;;;;;;19.21;83.81;98526.00;2172168;82;20972;-72
2021/07/29 00:13:43;;;;;;;21.85;8.55;;;;;;;19.18;83.69;98526.31;2172458;82;20996;-68
2021/07/29 00:16:47;;;;;;;23.22;9.83;;;;;;;19.14;83.61;98528.11;2171802;82;21127;-74
2021/07/29 00:19:46;;;;;;;19.55;8.25;;;;;;;19.10;84.05;98524.09;2151322;82;21032;-73
2021/07/29 00:25:49;;;;;;;21.48;8.73;;;;;;;19.06;83.91;98521.41;2151634;82;21055;-63
2021/07/29 00:28:49;;;;;;;25.97;9.33;;;;;;;19.06;84.18;98533.36;2180245;82;21043;-71
2021/07/29 00:31:50;;;;;;;22.93;9.30;;;;;;;19.05;83.63;98521.91;2182098;82;21100;-71
2021/07/29 00:34:50;;;;;;;22.70;8.78;;;;;;;19.03;83.49;98519.89;2181970;82;21475;-66
2021/07/29 00:37:52;;;;;;;20.65;8.35;;;;;;;19.02;83.89;98520.39;2182077;82;21515;-70
2021/07/29 00:40:52;;;;;;;20.08;8.45;;;;;;;19.02;83.61;98527.52;2182388;82;20991;-71
2021/07/29 00:43:52;;;;;;;22.75;8.08;;;;;;;19.01;83.60;98532.00;2182179;82;21023;-71
2021/07/29 00:46:53;;;;;;;19.98;8.20;;;;;;;18.97;83.36;98533.30;2181850;82;21023;-72
2021/07/29 00:49:53;;;;;;;21.80;8.73;;;;;;;18.98;82.59;98540.28;2182068;82;21091;-67
2021/07/29 00:52:54;;;;;;;20.48;8.18;;;;;;;19.07;82.40;98537.70;2182065;82;21474;-69
2021/07/29 00:55:54;;;;;;;21.70;8.53;;;;;;;19.10;82.61;98539.53;2182061;82;21051;-64
2021/07/29 00:58:55;;;;;;;21.57;9.48;;;;;;;19.05;82.54;98545.83;2182067;82;20988;-68
2021/07/29 01:01:55;;;;;;;21.20;8.58;;;;;;;19.00;83.07;98540.13;2182171;82;21071;-69
2021/07/29 01:04:55;;;;;;;24.47;9.25;;;;;;;18.97;83.27;98549.24;2182142;82;20964;-68
2021/07/29 01:07:56;;;;;;;22.42;8.30;;;;;;;18.93;83.50;98551.86;2182049;82;20984;-70
2021/07/29 01:10:56;;;;;;;22.15;9.13;;;;;;;18.91;83.89;98552.52;2181979;82;21063;-69
2021/07/29 01:13:57;;;;;;;22.40;8.80;;;;;;;18.89;83.78;98557.64;2182087;82;21493;-69
2021/07/29 01:16:57;;;;;;;21.65;7.67;;;;;;;18.85;83.77;98563.23;2181756;82;20984;-68
2021/07/29 01:19:58;;;;;;;22.05;8.35;;;;;;;18.84;83.99;98564.22;2182091;82;21103;-69
2021/07/29 01:22:59;;;;;;;20.57;8.18;;;;;;;18.82;84.10;98563.55;2182251;82;21066;-66
2021/07/29 01:25:59;;;;;;;19.65;7.70;;;;;;;18.80;84.34;98561.52;2181921;82;20960;-70
2021/07/29 01:29:00;;;;;;;22.58;8.58;;;;;;;18.77;84.09;98556.52;2181947;82;21563;-69
2021/07/29 01:32:00;;;;;;;20.65;7.67;;;;;;;18.78;83.77;98562.69;2181926;82;21495;-70
2021/07/29 01:35:00;;;;;;;20.17;7.62;;;;;;;18.77;83.77;98561.83;2181943;82;21052;-64
2021/07/29 01:38:01;;;;;;;21.85;8.05;;;;;;;18.78;83.16;98564.01;2182005;82;20996;-68
2021/07/29 01:41:02;;;;;;;19.65;7.70;;;;;;;18.74;83.26;98570.11;2182276;82;20976;-69
2021/07/29 01:44:03;;;;;;;24.50;8.23;;;;;;;18.71;83.54;98571.74;2182156;82;21016;-70
2021/07/29 01:47:04;;;;;;;21.43;8.30;;;;;;;18.71;83.34;98579.71;2182315;82;21530;-68
2021/07/29 01:50:05;;;;;;;23.38;7.78;;;;;;;18.69;83.55;98577.69;2182243;82;21345;-71
2021/07/29 01:53:05;;;;;;;22.58;7.92;;;;;;;18.67;83.52;98575.69;2182018;82;20953;-65
2021/07/29 01:56:06;;;;;;;19.90;7.40;;;;;;;18.65;83.60;98578.49;2181532;82;20985;-68
2021/07/29 01:59:07;;;;;;;18.98;6.58;;;;;;;18.68;83.48;98572.05;2181732;82;21016;-67
2021/07/29 02:02:07;;;;;;;20.85;7.05;;;;;;;18.65;82.30;98580.33;2181878;82;21527;-66
2021/07/29 02:05:07;;;;;;;19.75;6.62;;;;;;;18.59;82.57;98577.78;2182115;82;20999;-72
2021/07/29 02:08:08;;;;;;;19.35;6.83;;;;;;;18.59;82.22;98571.14;2182042;82;21112;-63
2021/07/29 02:11:09;;;;;;;17.67;6.17;;;;;;;18.59;81.61;98568.48;2181820;82;21012;-70
2021/07/29 02:14:09;;;;;;;22.22;6.83;;;;;;;18.60;81.47;98574.63;2182179;82;20980;-73
2021/07/29 02:17:10;;;;;;;503.05;103.80;;;;;;;18.61;81.45;98570.98;2182214;82;20995;-69
2021/07/29 02:20:10;;;;;;;19.77;6.22;;;;;;;18.59;81.77;98576.45;2137095;83;21009;-68
2021/07/29 02:23:10;;;;;;;23.42;6.35;;;;;;;18.53;81.50;98581.88;2137287;83;21080;-68
2021/07/29 02:26:11;;;;;;;17.70;6.20;;;;;;;18.42;81.45;98575.44;2137255;83;21502;-64
2021/07/29 02:29:11;;;;;;;17.00;5.70;;;;;;;18.34;81.22;98584.64;2136765;83;21083;-71
2021/07/29 02:32:12;;;;;;;18.30;6.08;;;;;;;18.31;81.52;98591.58;2137445;83;20984;-66
2021/07/29 02:35:12;;;;;;;21.42;6.35;;;;;;;18.28;81.46;98586.57;2137235;83;21091;-65
2021/07/29 02:38:13;;;;;;;20.25;6.62;;;;;;;18.27;81.74;98588.38;2182186;82;21506;-63
2021/07/29 02:41:14;;;;;;;17.95;6.58;;;;;;;18.24;81.55;98591.33;2182406;82;21095;-68
2021/07/29 02:44:16;;;;;;;19.37;7.25;;;;;;;18.20;81.72;98583.31;2182187;82;21000;-68
2021/07/29 02:47:16;;;;;;;20.48;7.78;;;;;;;18.17;81.98;98585.80;2182274;82;20992;-69
2021/07/29 02:50:17;;;;;;;21.20;8.20;;;;;;;18.15;82.56;98585.09;2182055;82;20972;-64
2021/07/29 02:53:17;;;;;;;22.37;7.78;;;;;;;18.13;82.37;98578.25;2182314;82;20988;-73
2021/07/29 02:56:18;;;;;;;20.17;7.85;;;;;;;18.12;82.53;98580.08;2182183;82;20980;-66
2021/07/29 02:59:18;;;;;;;20.12;7.25;;;;;;;18.11;82.68;98586.87;2182424;82;20976;-67
2021/07/29 03:02:19;;;;;;;20.37;7.30;;;;;;;18.17;82.85;98589.78;2181948;82;21084;-68
2021/07/29 03:05:19;;;;;;;21.50;7.12;;;;;;;18.30;82.76;98588.58;2182164;82;21015;-67
2021/07/29 03:08:19;;;;;;;22.32;7.10;;;;;;;18.35;82.45;98587.64;2182160;82;21499;-71
2021/07/29 03:11:20;;;;;;;20.32;7.33;;;;;;;18.35;82.00;98583.16;2181879;82;21025;-68
2021/07/29 03:14:21;;;;;;;19.17;6.83;;;;;;;18.39;82.03;98588.16;2182051;82;21064;-72
2021/07/29 03:17:21;;;;;;;21.93;6.87;;;;;;;18.39;82.00;98585.52;2182169;82;20980;-67
2021/07/29 03:20:21;;;;;;;20.75;6.55;;;;;;;18.41;81.90;98582.23;2182402;82;20972;-65
2021/07/29 03:23:22;;;;;;;19.10;6.87;;;;;;;18.44;81.74;98576.62;2182191;82;20995;-69
2021/07/29 03:26:23;;;;;;;17.98;6.62;;;;;;;18.34;82.03;98591.28;2182123;82;20984;-64
2021/07/29 03:29:27;;;;;;;21.35;7.90;;;;;;;18.24;82.14;98586.02;2181832;82;21047;-72
2021/07/29 03:32:26;;;;;;;22.77;8.40;;;;;;;18.16;82.50;98588.09;2152779;82;20960;-65
2021/07/29 03:35:28;;;;;;;22.02;8.75;;;;;;;18.10;82.65;98570.13;2152490;82;21043;-67
2021/07/29 03:38:30;;;;;;;22.13;8.70;;;;;;;18.10;82.65;98570.13;2152583;82;21526;-68
2021/07/29 03:41:31;;;;;;;21.90;8.18;;;;;;;18.22;82.46;98577.89;2182300;82;20976;-69
2021/07/29 03:44:31;;;;;;;22.27;8.20;;;;;;;18.27;82.49;98578.25;2182181;82;21004;-68
2021/07/29 03:47:32;;;;;;;21.73;8.10;;;;;;;18.31;82.25;98581.78;2182178;82;20945;-63
2021/07/29 03:50:32;;;;;;;22.00;8.23;;;;;;;18.25;82.39;98581.06;2182090;82;20964;-69
2021/07/29 03:53:33;;;;;;;21.60;7.87;;;;;;;18.18;82.39;98581.31;2181946;82;21513;-66
2021/07/29 03:56:33;;;;;;;22.40;7.97;;;;;;;18.19;82.33;98584.31;2182062;82;21503;-61
2021/07/29 03:59:36;;;;;;;24.25;8.65;;;;;;;18.20;82.33;98584.64;2181631;82;21050;-65
2021/07/29 04:02:37;;;;;;;22.75;8.63;;;;;;;18.25;82.39;98590.86;2182124;82;21016;-71
2021/07/29 04:05:37;;;;;;;21.20;8.73;;;;;;;18.26;82.65;98593.83;2182031;82;20984;-63
2021/07/29 04:08:38;;;;;;;21.02;8.03;;;;;;;18.15;82.50;98598.86;2181910;82;21016;-71
2021/07/29 04:11:39;;;;;;;21.85;8.80;;;;;;;18.14;82.72;98601.98;2181924;82;21023;-67
2021/07/29 04:14:40;;;;;;;21.37;8.58;;;;;;;18.07;82.92;98606.22;2182133;82;21036;-69
2021/07/29 04:17:41;;;;;;;20.85;8.73;;;;;;;17.97;83.16;98612.91;2182222;82;20976;-70
2021/07/29 04:20:42;;;;;;;21.85;9.25;;;;;;;17.93;83.88;98608.88;2182093;82;21515;-67
2021/07/29 04:23:43;;;;;;;24.20;9.80;;;;;;;17.89;83.95;98611.44;2182494;82;21521;-71
2021/07/29 04:26:43;;;;;;;21.42;9.50;;;;;;;17.91;84.25;98624.09;2182160;82;21074;-70
2021/07/29 04:29:44;;;;;;;24.10;9.63;;;;;;;17.90;84.60;98617.13;2181795;82;21020;-69
2021/07/29 04:32:44;;;;;;;23.05;10.35;;;;;;;18.04;84.41;98609.17;2182079;82;21080;-68
2021/07/29 04:35:45;;;;;;;22.93;9.65;;;;;;;18.26;85.00;98615.92;2137039;83;21432;-65
2021/07/29 04:38:45;;;;;;;22.32;9.88;;;;;;;18.43;84.43;98613.44;2137081;83;21515;-71
2021/07/29 04:41:46;;;;;;;22.45;9.85;;;;;;;18.55;84.07;98614.91;2137397;83;20952;-71
2021/07/29 04:44:46;;;;;;;23.90;10.03;;;;;;;18.70;84.01;98605.45;2137059;83;21008;-67
2021/07/29 04:47:46;;;;;;;26.55;11.12;;;;;;;18.84;84.05;98609.89;2182193;81;21052;-69
2021/07/29 04:50:47;;;;;;;23.75;11.00;;;;;;;19.02;83.30;98605.44;2137146;83;20988;-66
2021/07/29 04:53:48;;;;;;;22.82;11.08;;;;;;;19.17;83.25;98605.72;2182022;81;21027;-69
2021/07/29 04:56:48;;;;;;;20.90;10.18;;;;;;;19.29;83.00;98599.65;2137068;83;20996;-70
2021/07/29 04:59:48;;;;;;;28.83;11.10;;;;;;;19.36;82.68;98602.03;2181951;81;21037;-64
2021/07/29 05:02:49;;;;;;;25.08;10.23;;;;;;;19.44;82.17;98599.08;2137077;83;21526;-63
2021/07/29 05:05:50;;;;;;;23.55;9.15;;;;;;;19.59;82.11;98596.70;2181939;81;21527;-63
2021/07/29 05:08:51;;;;;;;22.95;9.28;;;;;;;19.58;80.24;98597.18;2182317;82;20976;-66
2021/07/29 05:11:51;;;;;;;23.02;8.28;;;;;;;19.64;80.00;98605.03;2181646;82;21008;-68
2021/07/29 05:14:56;;;;;;;24.02;8.10;;;;;;;19.67;79.20;98600.25;2181862;82;21012;-71
2021/07/29 05:17:54;;;;;;;20.20;7.42;;;;;;;19.76;78.61;98601.13;2152718;82;21547;-66
2021/07/29 05:20:55;;;;;;;24.92;8.00;;;;;;;19.87;77.81;98608.88;2182450;82;20980;-67
2021/07/29 05:23:55;;;;;;;21.00;8.10;;;;;;;19.94;77.32;98609.56;2182069;82;21075;-69
2021/07/29 05:26:57;;;;;;;18.45;7.42;;;;;;;20.02;75.41;98615.75;2181971;82;21040;-69
2021/07/29 05:29:57;;;;;;;20.37;7.40;;;;;;;19.97;75.51;98620.73;2182308;82;20996;-70
2021/07/29 05:32:58;;;;;;;19.02;7.20;;;;;;;20.02;77.05;98610.43;2182488;82;20999;-70
2021/07/29 05:35:59;;;;;;;18.40;6.67;;;;;;;20.16;77.20;98600.19;2182726;81;21047;-68
2021/07/29 05:38:59;;;;;;;19.60;7.37;;;;;;;20.20;73.89;98610.35;2182741;82;21039;-70
2021/07/29 05:42:01;;;;;;;19.25;6.87;;;;;;;20.30;75.25;98612.89;2182486;82;21007;-70
2021/07/29 05:45:02;;;;;;;;;;;;;;;20.25;73.07;98614.68;2184873;81;21015;-65
2021/07/29 05:48:02;;;;;;;18.75;6.42;;;;;;;20.29;73.71;98616.54;2137631;83;20129;-66
2021/07/29 05:51:03;;;;;;;19.17;6.85;;;;;;;20.29;72.22;98613.87;2103746;85;21083;-68
2021/07/29 05:54:04;;;;;;;20.48;6.67;;;;;;;20.33;72.81;98615.70;2137894;83;21078;-63
2021/07/29 05:57:04;;;;;;;18.65;6.92;;;;;;;20.33;72.23;98618.37;2137802;83;21087;-64
2021/07/29 06:00:04;;;;;;;21.15;6.90;;;;;;;20.34;71.99;98620.90;2138059;83;20999;-66
2021/07/29 06:03:06;;;;;;;21.35;7.05;;;;;;;20.36;71.09;98624.73;2138181;83;21004;-67
2021/07/29 06:06:07;;;;;;;21.12;6.75;;;;;;;20.42;74.02;98622.75;2138014;83;21073;-64
2021/07/29 06:09:07;;;;;;;23.47;7.22;;;;;;;20.49;71.24;98623.77;2138217;83;21499;-69
2021/07/29 06:12:09;;;;;;;21.85;7.33;;;;;;;20.57;71.33;98621.61;2137718;83;21043;-70
2021/07/29 06:15:09;;;;;;;20.32;6.75;;;;;;;20.61;72.15;98626.95;2138210;83;20985;-67
2021/07/29 06:18:12;;;;;;;20.32;6.85;;;;;;;20.71;69.51;98628.18;2138081;83;21554;-64
2021/07/29 06:21:12;;;;;;;21.33;7.35;;;;;;;20.79;69.64;98636.20;2135469;83;21016;-67
2021/07/29 06:24:13;;;;;;;20.07;6.63;;;;;;;20.86;70.67;98627.03;2137980;83;21028;-70
2021/07/29 06:27:13;;;;;;;21.10;6.63;;;;;;;20.88;68.42;98640.53;2138293;83;20949;-65
2021/07/29 06:30:15;;;;;;;20.40;6.90;;;;;;;20.97;69.12;98632.55;2111478;83;21044;-68
2021/07/29 06:33:16;;;;;;;18.47;6.67;;;;;;;21.10;69.67;98633.74;2144271;83;20996;-67
2021/07/29 06:36:16;;;;;;;20.37;6.93;;;;;;;21.33;68.59;98642.90;2143760;83;21084;-70
2021/07/29 06:39:17;;;;;;;18.27;6.43;;;;;;;21.53;69.49;98632.75;2144269;83;20996;-69
2021/07/29 06:42:17;;;;;;;19.70;6.45;;;;;;;21.68;67.64;98640.41;2144160;83;21554;-67
2021/07/29 06:45:18;;;;;;;20.32;6.70;;;;;;;21.71;66.61;98641.40;2143783;83;21040;-64
2021/07/29 06:48:18;;;;;;;20.43;6.70;;;;;;;21.57;66.57;98648.76;2144011;83;21572;-66
2021/07/29 06:51:19;;;;;;;19.57;6.47;;;;;;;21.68;65.49;98652.42;2144222;83;20981;-61
2021/07/29 06:54:20;;;;;;;17.95;6.20;;;;;;;21.75;66.53;98647.21;2144046;83;20985;-61
2021/07/29 06:57:20;;;;;;;17.50;6.58;;;;;;;21.90;64.68;98643.36;2144075;83;21037;-60
2021/07/29 07:00:20;;;;;;;17.93;5.93;;;;;;;21.98;63.03;98650.84;2144132;83;21044;-64
2021/07/29 07:03:21;;;;;;;18.62;6.40;;;;;;;22.00;62.76;98656.52;2144363;83;21059;-63
2021/07/29 07:06:21;;;;;;;17.67;6.27;;;;;;;22.09;63.99;98652.81;2144324;83;20981;-64
2021/07/29 07:09:22;;;;;;;18.98;6.00;;;;;;;22.07;62.77;98655.66;2143828;83;21036;-61
2021/07/29 07:12:23;;;;;;;17.23;6.23;;;;;;;22.13;60.35;98662.97;2144237;83;21096;-60
2021/07/29 07:15:23;;;;;;;19.60;6.43;;;;;;;22.16;61.42;98672.48;2143961;83;21592;-60
2021/07/29 07:18:24;;;;;;;20.87;6.70;;;;;;;22.23;61.94;98663.30;2144252;83;21043;-64
2021/07/29 07:21:24;;;;;;;17.97;5.77;;;;;;;22.31;62.63;98663.23;2144241;83;21056;-61
2021/07/29 07:24:25;;;;;;;18.47;6.73;;;;;;;22.47;61.02;98665.06;2144324;83;21004;-61
2021/07/29 07:27:25;;;;;;;21.43;6.63;;;;;;;22.66;62.01;98646.42;2144090;83;21051;-63
2021/07/29 07:30:26;;;;;;;18.50;6.60;;;;;;;22.68;60.12;98653.75;2131740;83;21016;-60
2021/07/29 07:33:26;;;;;;;18.47;6.60;;;;;;;22.83;60.24;98645.31;2127990;84;21428;-61
2021/07/29 07:36:26;;;;;;;17.83;6.50;;;;;;;22.93;61.00;98635.73;2127950;84;21496;-61
2021/07/29 07:39:27;;;;;;;19.10;6.90;;;;;;;22.80;60.31;98640.33;2128107;84;20989;-64
2021/07/29 07:42:27;;;;;;;19.80;6.60;;;;;;;22.90;59.83;98640.59;2127952;84;21040;-61
2021/07/29 07:45:28;;;;;;;16.03;5.93;;;;;;;23.01;59.56;98637.50;2128012;84;21059;-60
2021/07/29 07:48:28;;;;;;;17.77;6.00;;;;;;;23.23;57.20;98643.91;2127941;84;20988;-63
2021/07/29 07:51:29;;;;;;;16.23;5.43;;;;;;;23.25;57.79;98638.38;2127979;84;21029;-64
2021/07/29 07:54:29;;;;;;;18.57;5.93;;;;;;;23.30;56.03;98643.52;2127984;84;21484;-64
2021/07/29 07:57:29;;;;;;;18.30;6.30;;;;;;;23.37;57.10;98636.09;2127922;84;21515;-66
2021/07/29 08:00:30;;;;;;;19.27;6.40;;;;;;;23.55;57.52;98633.07;2127984;84;21024;-63
2021/07/29 08:03:30;;;;;;;19.33;6.40;;;;;;;23.65;58.22;98638.50;2127930;84;21036;-64
2021/07/29 08:06:31;;;;;;;16.53;5.70;;;;;;;23.81;59.94;98630.81;2172543;82;20956;-61
2021/07/29 08:09:31;;;;;;;14.33;5.40;;;;;;;23.63;56.97;98634.34;2172589;82;21000;-66
2021/07/29 08:12:32;;;;;;;16.13;5.77;;;;;;;23.65;55.61;98639.02;2172460;82;20972;-67
2021/07/29 08:15:32;;;;;;;17.70;6.17;;;;;;;23.95;56.15;98635.03;2172287;82;20972;-61
2021/07/29 08:18:33;;;;;;;17.57;5.63;;;;;;;24.18;57.78;98620.23;2172410;82;21510;-69
2021/07/29 08:21:33;;;;;;;16.80;5.73;;;;;;;24.46;54.50;98624.38;2172460;82;20984;-67
2021/07/29 08:24:34;;;;;;;15.60;5.30;;;;;;;24.56;53.97;98615.52;2171874;82;21068;-61
2021/07/29 08:27:35;;;;;;;15.87;5.60;;;;;;;24.71;51.10;98622.72;2172402;82;21480;-67
2021/07/29 08:30:36;;;;;;;18.15;5.90;;;;;;;24.52;53.34;98616.09;2179898;82;21610;-64
2021/07/29 08:33:37;;;;;;;15.87;5.17;;;;;;;24.56;52.02;98616.86;2182932;82;20987;-61
2021/07/29 08:36:37;;;;;;;16.17;5.27;;;;;;;24.70;53.06;98609.83;2182741;81;21027;-69
2021/07/29 08:39:37;;;;;;;16.03;5.63;;;;;;;24.88;54.24;98607.22;2182641;82;20971;-66
2021/07/29 08:42:38;;;;;;;16.77;5.80;;;;;;;25.09;52.45;98605.05;2182639;82;20959;-70
2021/07/29 08:45:38;;;;;;;15.17;5.20;;;;;;;25.14;52.42;98604.47;2182502;82;21460;-60
2021/07/29 08:48:39;;;;;;;15.80;4.83;;;;;;;25.04;50.30;98608.81;2182539;82;20980;-61
2021/07/29 08:51:40;;;;;;;16.53;5.40;;;;;;;24.95;50.06;98616.68;2182788;82;21022;-68
2021/07/29 08:54:40;;;;;;;16.35;5.22;;;;;;;25.20;51.67;98606.41;2182593;81;21040;-64
2021/07/29 08:57:42;;;;;;;17.20;5.53;;;;;;;25.55;49.53;98607.30;2182489;82;20980;-61
2021/07/29 09:00:43;;;;;;;15.98;5.33;;;;;;;25.64;51.33;98608.50;2182330;81;21447;-62
2021/07/29 09:03:44;;;;;;;15.70;5.13;;;;;;;25.28;49.72;98607.58;2182752;82;21044;-62
2021/07/29 09:06:45;;;;;;;14.30;4.90;;;;;;;25.29;51.67;98613.27;2182489;81;21072;-64
2021/07/29 09:09:46;;;;;;;16.37;5.53;;;;;;;25.46;50.77;98607.64;2182638;82;21479;-65
2021/07/29 09:12:47;;;;;;;16.10;5.05;;;;;;;25.59;49.23;98611.78;2182046;82;21753;-63
2021/07/29 09:15:49;;;;;;;15.10;5.10;;;;;;;25.58;49.36;98606.09;2182145;82;21526;-67
2021/07/29 09:18:49;;;;;;;16.37;5.10;;;;;;;26.00;50.44;98608.83;2182865;82;20992;-63
2021/07/29 09:21:50;;;;;;;16.90;5.77;;;;;;;25.71;50.01;98615.56;2182768;82;20960;-63
2021/07/29 09:24:50;;;;;;;16.83;5.83;;;;;;;24.99;50.44;98622.80;2182724;82;20996;-62
2021/07/29 09:27:51;;;;;;;18.07;5.33;;;;;;;25.32;50.37;98616.13;2182709;82;21015;-61
2021/07/29 09:30:51;;;;;;;16.83;5.13;;;;;;;25.56;49.96;98606.29;2174959;81;21078;-65
2021/07/29 09:33:52;;;;;;;15.53;5.20;;;;;;;25.80;49.78;98601.47;2172243;82;21459;-66
2021/07/29 09:36:52;;;;;;;14.20;5.07;;;;;;;25.67;48.54;98594.68;2172201;82;21452;-63
2021/07/29 09:39:53;;;;;;;13.93;5.07;;;;;;;26.03;48.80;98605.27;2172278;82;20964;-68
2021/07/29 09:42:53;;;;;;;16.63;5.17;;;;;;;26.18;48.81;98606.47;2172208;82;21099;-64
2021/07/29 09:45:53;;;;;;;16.30;6.07;;;;;;;25.57;46.27;98611.13;2172545;82;21008;-62
2021/07/29 09:48:54;;;;;;;16.53;4.90;;;;;;;25.40;47.53;98619.49;2172530;82;21015;-67
2021/07/29 09:51:55;;;;;;;14.17;4.50;;;;;;;25.70;47.00;98616.62;2172196;82;21088;-61
2021/07/29 09:54:55;;;;;;;16.50;5.20;;;;;;;25.99;46.07;98617.41;2172340;82;21451;-63
2021/07/29 09:57:55;;;;;;;16.50;4.97;;;;;;;26.40;47.71;98617.10;2172078;82;21503;-61
2021/07/29 10:00:56;;;;;;;14.50;5.03;;;;;;;26.49;44.46;98611.84;2172489;82;21016;-63
2021/07/29 10:03:56;;;;;;;15.37;5.30;;;;;;;26.68;46.57;98608.08;2172564;82;20988;-63
2021/07/29 10:06:57;;;;;;;14.90;5.00;;;;;;;26.71;44.73;98622.52;2172308;82;20999;-62
2021/07/29 10:09:57;;;;;;;16.87;5.07;;;;;;;26.29;45.64;98617.14;2172272;82;21049;-67
2021/07/29 10:12:58;;;;;;;13.13;4.65;;;;;;;25.87;47.30;98602.86;2171946;82;21064;-62
2021/07/29 10:15:59;;;;;;;11.60;4.30;;;;;;;26.31;47.13;98601.66;2172322;82;21518;-65
2021/07/29 10:19:00;;;;;;;15.00;4.70;;;;;;;26.73;45.89;98601.61;2172059;82;21305;-62
2021/07/29 10:22:00;;;;;;;12.90;4.63;;;;;;;26.78;44.51;98595.94;2172479;82;20984;-62
2021/07/29 10:25:00;;;;;;;13.10;4.70;;;;;;;26.15;44.62;98597.95;2172473;82;20983;-63
2021/07/29 10:28:01;;;;;;;12.67;4.70;;;;;;;26.05;44.94;98597.83;2172273;82;21016;-62
2021/07/29 10:31:01;;;;;;;13.40;4.60;;;;;;;26.24;44.28;98599.47;2178885;82;21039;-61
2021/07/29 10:34:02;;;;;;;12.83;4.80;;;;;;;26.37;44.26;98605.41;2182255;82;21471;-63
2021/07/29 10:37:02;;;;;;;15.57;4.60;;;;;;;26.02;44.40;98592.01;2182246;82;21007;-70
2021/07/29 10:40:03;;;;;;;12.83;4.70;;;;;;;26.27;45.61;98599.88;2182306;82;21023;-67
2021/07/29 10:43:03;;;;;;;12.43;4.53;;;;;;;26.76;44.75;98590.45;2182292;82;21056;-69
2021/07/29 10:46:03;;;;;;;16.23;4.60;;;;;;;27.10;44.29;98577.34;2182546;82;21047;-64
2021/07/29 10:52:07;;;;;;;14.87;4.72;;;;;;;27.01;43.24;98588.01;2152965;82;20973;-66
2021/07/29 10:55:08;;;;;;;14.53;4.67;;;;;;;26.88;45.98;98585.28;2182115;81;21004;-66
2021/07/29 10:58:10;;;;;;;17.00;5.27;;;;;;;27.39;43.18;98584.71;2182135;82;21008;-66
2021/07/29 11:01:11;;;;;;;13.28;4.40;;;;;;;27.02;42.47;98582.09;2182063;82;21022;-68
2021/07/29 11:04:12;;;;;;;15.73;4.73;;;;;;;27.16;43.71;98584.29;2182089;82;21008;-61
2021/07/29 11:07:12;;;;;;;14.73;4.72;;;;;;;27.48;43.04;98575.40;2182163;82;20980;-65
2021/07/29 11:10:13;;;;;;;15.00;4.70;;;;;;;27.66;44.56;98584.69;2182415;82;20944;-69
2021/07/29 11:13:13;;;;;;;15.30;5.40;;;;;;;27.05;43.35;98585.22;2182283;82;21303;-68
2021/07/29 11:16:14;;;;;;;16.73;5.27;;;;;;;26.51;44.45;98580.75;2182470;82;21035;-68
2021/07/29 11:19:14;;;;;;;16.37;5.03;;;;;;;27.11;44.01;98572.77;2182678;82;21007;-66
2021/07/29 11:22:15;;;;;;;15.87;5.20;;;;;;;27.76;41.74;98571.61;2182151;82;21044;-70
2021/07/29 11:25:16;;;;;;;15.47;4.93;;;;;;;28.05;42.92;98564.08;2182326;82;21000;-66
2021/07/29 11:28:16;;;;;;;14.20;4.80;;;;;;;28.39;39.94;98564.77;2181943;82;21514;-68
2021/07/29 11:31:18;;;;;;;;;;;;;;;28.28;40.32;98572.18;2177462;82;21571;-65
2021/07/29 11:34:18;;;;;;;11.57;4.13;;;;;;;28.50;39.95;98569.98;2128127;83;20150;-65
2021/07/29 11:37:19;;;;;;;11.90;4.37;;;;;;;28.60;38.22;98558.73;2172322;82;21016;-68
2021/07/29 11:40:20;;;;;;;15.23;4.87;;;;;;;28.86;39.94;98551.00;2172462;82;21019;-68
2021/07/29 11:43:20;;;;;;;11.13;4.20;;;;;;;29.11;37.83;98564.52;2172410;82;21547;-69
2021/07/29 11:46:21;;;;;;;12.60;4.40;;;;;;;29.25;37.62;98572.02;2172441;82;21008;-64
2021/07/29 11:49:21;;;;;;;13.03;4.20;;;;;;;29.25;37.62;98572.02;2172425;82;21024;-66
2021/07/29 11:52:21;;;;;;;12.47;4.13;;;;;;;29.16;37.81;98560.61;2172181;82;20992;-61
2021/07/29 11:55:22;;;;;;;12.80;4.30;;;;;;;29.46;38.06;98545.64;2172624;82;20944;-67
2021/07/29 11:58:22;;;;;;;13.33;4.40;;;;;;;29.09;36.76;98562.55;2172527;82;20972;-64
2021/07/29 12:01:23;;;;;;;11.97;4.03;;;;;;;29.02;39.55;98565.82;2172334;82;20992;-68
2021/07/29 12:04:23;;;;;;;10.87;4.20;;;;;;;29.07;36.13;98553.85;2172418;82;21522;-67
2021/07/29 12:07:24;;;;;;;11.27;4.07;;;;;;;29.29;37.46;98554.30;2172388;82;21542;-62
2021/07/29 12:10:24;;;;;;;12.70;4.20;;;;;;;29.49;38.36;98558.70;2172387;82;21554;-63
2021/07/29 12:13:30;;;;;;;13.08;4.72;;;;;;;29.70;35.98;98550.70;2171756;82;21064;-68
2021/07/29 12:16:30;;;;;;;12.07;4.00;;;;;;;29.54;36.83;98541.31;2151441;82;21007;-68
2021/07/29 12:19:31;;;;;;;10.85;4.20;;;;;;;29.47;36.92;98545.95;2171980;82;21044;-65
2021/07/29 12:22:31;;;;;;;12.30;4.33;;;;;;;29.25;37.77;98557.17;2172289;82;21015;-70
2021/07/29 12:25:32;;;;;;;14.60;4.60;;;;;;;28.91;39.20;98550.36;2172122;82;21032;-66
2021/07/29 12:28:32;;;;;;;10.33;4.03;;;;;;;28.87;38.51;98544.56;2172669;82;20949;-66
2021/07/29 12:31:33;;;;;;;13.60;4.37;;;;;;;29.17;38.93;98537.98;2179132;82;21048;-64
2021/07/29 12:34:33;;;;;;;12.93;4.80;;;;;;;29.12;38.54;98516.73;2182545;82;21031;-70
2021/07/29 12:37:34;;;;;;;12.97;4.17;;;;;;;28.41;39.80;98537.58;2182448;82;21003;-66
2021/07/29 12:40:35;;;;;;;11.83;4.27;;;;;;;28.32;39.13;98532.97;2182238;82;21051;-68
2021/07/29 12:43:36;;;;;;;10.70;4.00;;;;;;;28.65;38.03;98542.76;2182085;82;21000;-68
2021/07/29 12:46:36;;;;;;;12.37;4.22;;;;;;;28.48;41.09;98527.05;2181994;82;21032;-67
2021/07/29 12:49:37;;;;;;;12.55;4.33;;;;;;;28.83;40.62;98523.11;2181737;82;21043;-69
2021/07/29 12:52:38;;;;;;;10.83;4.30;;;;;;;29.17;39.20;98512.86;2182315;82;21067;-67
2021/07/29 12:55:38;;;;;;;15.30;4.47;;;;;;;29.49;38.16;98527.09;2182122;82;20960;-69
2021/07/29 12:58:39;;;;;;;12.00;4.67;;;;;;;29.33;36.52;98529.86;2182278;82;21506;-71
2021/07/29 13:01:40;;;;;;;14.03;4.20;;;;;;;29.25;37.70;98515.82;2182202;82;20980;-67
2021/07/29 13:04:40;;;;;;;12.80;4.35;;;;;;;28.79;37.42;98516.48;2182265;82;21011;-67
2021/07/29 13:07:41;;;;;;;13.83;4.77;;;;;;;27.92;38.01;98515.06;2182370;82;21011;-67
2021/07/29 13:10:42;;;;;;;13.28;4.30;;;;;;;27.38;39.01;98518.42;2181741;82;21605;-65
2021/07/29 13:13:44;;;;;;;12.90;4.70;;;;;;;27.68;39.59;98518.48;2181985;82;21083;-67
2021/07/29 13:16:44;;;;;;;15.28;4.55;;;;;;;28.13;38.55;98520.72;2181872;82;21055;-64
2021/07/29 13:19:45;;;;;;;15.93;4.73;;;;;;;28.02;39.16;98511.14;2182318;82;21020;-68
2021/07/29 13:22:46;;;;;;;10.50;4.07;;;;;;;27.81;40.71;98504.95;2182230;82;21459;-67
2021/07/29 13:25:47;;;;;;;12.37;4.17;;;;;;;28.26;38.41;98496.06;2182138;82;20996;-68
2021/07/29 13:28:47;;;;;;;12.03;4.33;;;;;;;28.56;38.64;98490.06;2182307;82;21039;-63
2021/07/29 13:31:47;;;;;;;12.90;4.30;;;;;;;28.96;38.50;98491.95;2175481;82;21056;-65
2021/07/29 13:34:49;;;;;;;13.25;4.47;;;;;;;29.60;36.44;98479.62;2172123;82;21012;-65
2021/07/29 13:37:49;;;;;;;18.30;4.53;;;;;;;29.81;36.84;98483.73;2172369;82;21032;-64
2021/07/29 13:40:50;;;;;;;16.40;4.90;;;;;;;29.97;36.32;98470.16;2172390;82;21530;-65
2021/07/29 13:43:51;;;;;;;15.95;4.15;;;;;;;29.89;36.10;98478.03;2172155;82;21583;-64
2021/07/29 13:46:51;;;;;;;13.15;4.30;;;;;;;30.32;34.69;98468.09;2172298;82;20960;-61
2021/07/29 13:49:52;;;;;;;13.13;4.30;;;;;;;30.33;35.89;98468.41;2172581;82;21016;-61
2021/07/29 13:52:53;;;;;;;12.58;4.10;;;;;;;29.78;35.16;98474.70;2171949;82;21024;-65
2021/07/29 13:55:54;;;;;;;13.38;4.28;;;;;;;29.06;36.14;98474.44;2172269;82;21064;-61
2021/07/29 13:58:54;;;;;;;14.67;4.20;;;;;;;28.58;36.27;98486.11;2172356;82;21561;-63
2021/07/29 14:01:55;;;;;;;14.73;4.40;;;;;;;28.12;36.43;98476.45;2172130;82;21059;-68
2021/07/29 14:04:55;;;;;;;13.13;4.23;;;;;;;27.76;37.56;98478.66;2172309;82;21000;-62